^^
Station Historical Data
 
Daily Summary for April 22, 2018 Units:  English    Metric   Both
« Previous Day
Next Day »
Daily Weekly Monthly Yearly Custom
  Current: High: Low: Average:
Temperature: 14.2 °F TemperatureC °F -2.4 °F 8.5 °F
Dew Point: 0.8 °F DewpointC °F -4.0 °F -0.6 °F
Humidity: 40% Humidity% 27% 58%
Wind Speed: 4.7mph WindSpeedKMHmph 0.0mph 3.3mph
Wind Gust: 4.7mph WindSpeedGustKMHmph - -
WindSE - - SE
Pressure: 1026.0 in PressurehPa in 1026.0 in -
Precipitation: 0.0 in      
Historical Graphs
 
 
Tabular Data for April 22, 2018
Time Temperature Dew Point Pressure Wind Wind Speed Wind Gust Humidity Rainfall Rate (Hourly) solar Conditions
TemperatureC °F DewpointC °F PressurehPa in Calm     Humidity% HourlyPrecipMM in SoftwareType W/m2 Conditions
00:00 2.3 °F -2.4 °F 1028.7 in Calm     71% 0.0 in WeatherDisplay:10.37 W/m2 CLR
00:05 2.2 °F -2.5 °F 1029.0 in Calm     71% 0.0 in WeatherDisplay:10.37 W/m2 CLR
00:10 2.1 °F -2.2 °F 1029.0 in Calm     73% 0.0 in WeatherDisplay:10.37 W/m2 CLR
00:15 1.9 °F -2.2 °F 1029.0 in Calm     74% 0.0 in WeatherDisplay:10.37 W/m2 CLR
00:20 1.7 °F -2.4 °F 1029.0 in Calm     74% 0.0 in WeatherDisplay:10.37 W/m2 CLR
00:25 1.7 °F -2.3 °F 1029.0 in Calm     75% 0.0 in WeatherDisplay:10.37 W/m2 CLR
00:30 1.6 °F -2.3 °F 1028.7 in Calm     75% 0.0 in WeatherDisplay:10.37 W/m2 CLR
00:35 1.5 °F -2.4 °F 1029.0 in Calm     75% 0.0 in WeatherDisplay:10.37 W/m2 CLR
00:40 1.2 °F -2.7 °F 1028.7 in Calm     75% 0.0 in WeatherDisplay:10.37 W/m2 CLR
00:45 1.0 °F -2.9 °F 1029.0 in Calm     75% 0.0 in WeatherDisplay:10.37 W/m2 CLR
00:50 1.0 °F -2.8 °F 1028.7 in Calm     76% 0.0 in WeatherDisplay:10.37 W/m2 CLR
00:55 0.8 °F -2.9 °F 1029.0 in Calm     76% 0.0 in WeatherDisplay:10.37 W/m2 CLR
01:00 0.8 °F -2.4 °F 1028.7 in Calm     79% 0.0 in WeatherDisplay:10.37 W/m2 CLR
01:05 0.8 °F -2.4 °F 1029.0 in Calm     79% 0.0 in WeatherDisplay:10.37 W/m2 CLR
01:10 0.6 °F -2.6 °F 1028.7 in Calm     79% 0.0 in WeatherDisplay:10.37 W/m2 CLR
01:15 0.3 °F -2.7 °F 1028.7 in Calm     80% 0.0 in WeatherDisplay:10.37 W/m2 CLR
01:20 0.3 °F -2.7 °F 1028.7 in Calm     80% 0.0 in WeatherDisplay:10.37 W/m2 CLR
01:25 0.3 °F -2.7 °F 1028.7 in Calm     80% 0.0 in WeatherDisplay:10.37 W/m2 CLR
01:30 0.1 °F -2.9 °F 1029.0 in Calm     80% 0.0 in WeatherDisplay:10.37 W/m2 CLR
01:35 -0.1 °F -2.9 °F 1028.7 in Calm     81% 0.0 in WeatherDisplay:10.37 W/m2 CLR
01:40 -0.1 °F -2.9 °F 1028.7 in Calm     81% 0.0 in WeatherDisplay:10.37 W/m2 CLR
01:45 -0.2 °F -3.1 °F 1028.7 in Calm     81% 0.0 in WeatherDisplay:10.37 W/m2 CLR
01:50 -0.1 °F -2.9 °F 1028.7 in Calm     81% 0.0 in WeatherDisplay:10.37 W/m2 CLR
01:55 -0.2 °F -3.1 °F 1028.7 in Calm     81% 0.0 in WeatherDisplay:10.37 W/m2 CLR
02:00 -0.3 °F -3.2 °F 1028.7 in Calm     81% 0.0 in WeatherDisplay:10.37 W/m2 CLR
02:05 -0.4 °F -2.9 °F 1028.7 in Calm     83% 0.0 in WeatherDisplay:10.37 W/m2 CLR
02:10 -0.4 °F -2.9 °F 1028.7 in Calm     83% 0.0 in WeatherDisplay:10.37 W/m2 CLR
02:15 -0.4 °F -2.6 °F 1028.7 in Calm     85% 0.0 in WeatherDisplay:10.37 W/m2 CLR
02:20 -0.4 °F -2.4 °F 1028.7 in Calm     86% 0.0 in WeatherDisplay:10.37 W/m2 CLR
02:25 -0.3 °F -2.1 °F 1028.7 in Calm     88% 0.0 in WeatherDisplay:10.37 W/m2 CLR
02:30 -0.2 °F -1.9 °F 1028.7 in Calm     88% 0.0 in WeatherDisplay:10.37 W/m2 CLR
02:35 -0.3 °F -2.1 °F 1028.7 in Calm     88% 0.0 in WeatherDisplay:10.37 W/m2 CLR
02:40 -0.3 °F -2.1 °F 1028.7 in Calm     88% 0.0 in WeatherDisplay:10.37 W/m2 CLR
02:45 -0.4 °F -2.2 °F 1028.7 in Calm     88% 0.0 in WeatherDisplay:10.37 W/m2 CLR
02:50 -0.4 °F -2.2 °F 1028.3 in Calm     88% 0.0 in WeatherDisplay:10.37 W/m2 CLR
02:55 -0.5 °F -2.2 °F 1028.3 in Calm     88% 0.0 in WeatherDisplay:10.37 W/m2 CLR
03:00 -0.7 °F -2.4 °F 1028.3 in Calm     88% 0.0 in WeatherDisplay:10.37 W/m2 CLR
03:05 -0.7 °F -2.4 °F 1028.3 in Calm     88% 0.0 in WeatherDisplay:10.37 W/m2 CLR
03:10 -0.7 °F -2.4 °F 1028.3 in Calm     88% 0.0 in WeatherDisplay:10.37 W/m2 CLR
03:15 -0.8 °F -2.6 °F 1028.3 in Calm     88% 0.0 in WeatherDisplay:10.37 W/m2 CLR
03:20 -0.9 °F -2.9 °F 1028.3 in Calm     86% 0.0 in WeatherDisplay:10.37 W/m2 CLR
03:21 -0.9 °F -2.9 °F 1028.3 in Calm     86% 0.0 in WeatherDisplay:10.37 W/m2 CLR
03:26 -1.1 °F -3.2 °F 1029.0 in Calm     86% 0.0 in WeatherDisplay:10.37 W/m2 CLR
03:31 -1.2 °F -3.2 °F 1029.0 in Calm     86% 0.0 in WeatherDisplay:10.37 W/m2 CLR
03:36 -1.2 °F -2.9 °F 1028.7 in Calm     88% 0.0 in WeatherDisplay:10.37 W/m2 CLR
03:41 -1.2 °F -2.9 °F 1028.7 in Calm     88% 0.0 in WeatherDisplay:10.37 W/m2 CLR
03:46 -1.3 °F -3.1 °F 1028.7 in Calm     88% 0.0 in WeatherDisplay:10.37 W/m2 CLR
03:51 -1.4 °F -3.1 °F 1028.7 in Calm     88% 0.0 in WeatherDisplay:10.37 W/m2 CLR
03:56 -1.4 °F -3.1 °F 1028.7 in Calm     88% 0.0 in WeatherDisplay:10.37 W/m2 CLR
04:01 -1.4 °F -3.1 °F 1029.0 in Calm     88% 0.0 in WeatherDisplay:10.37 W/m2 CLR
04:06 -1.6 °F -3.3 °F 1028.7 in Calm     88% 0.0 in WeatherDisplay:10.37 W/m2 CLR
04:11 -1.6 °F -3.3 °F 1029.0 in Calm     88% 0.0 in WeatherDisplay:10.37 W/m2 CLR
04:16 -1.6 °F -3.3 °F 1029.0 in Calm     88% 0.0 in WeatherDisplay:10.37 W/m2 CLR
04:21 -1.6 °F -3.3 °F 1029.0 in Calm     88% 0.0 in WeatherDisplay:10.37 W/m2 CLR
04:26 -1.4 °F -3.1 °F 1029.0 in Calm     88% 0.0 in WeatherDisplay:10.37 W/m2 CLR
04:31 -1.4 °F -3.1 °F 1028.7 in Calm     88% 0.0 in WeatherDisplay:10.37 W/m2 CLR
04:36 -1.6 °F -3.3 °F 1029.0 in Calm     88% 0.0 in WeatherDisplay:10.37 W/m2 CLR
04:41 -1.8 °F -3.5 °F 1029.0 in Calm     88% 0.0 in WeatherDisplay:10.37 W/m2 CLR
04:46 -1.8 °F -3.5 °F 1029.0 in Calm     88% 0.0 in WeatherDisplay:10.37 W/m2 CLR
04:51 -1.8 °F -3.5 °F 1029.0 in Calm     88% 0.0 in WeatherDisplay:10.37 W/m2 CLR
04:56 -1.8 °F -3.5 °F 1029.0 in Calm     88% 0.0 in WeatherDisplay:10.37 W/m2 CLR
05:01 -1.9 °F -3.6 °F 1029.0 in Calm     88% 0.0 in WeatherDisplay:10.37 W/m2 CLR
05:06 -2.1 °F -3.8 °F 1029.0 in Calm     88% 0.0 in WeatherDisplay:10.37 W/m2 CLR
05:11 -2.3 °F -4.0 °F 1029.0 in Calm     88% 0.0 in WeatherDisplay:10.37 W/m2 CLR
05:16 -2.3 °F -3.7 °F 1029.3 in Calm     90% 0.0 in WeatherDisplay:10.37 W/m2 CLR
05:21 -2.4 °F -3.8 °F 1029.0 in Calm     90% 0.0 in WeatherDisplay:10.37 W/m2 CLR
05:26 -2.4 °F -3.8 °F 1029.0 in Calm     90% 0.0 in WeatherDisplay:10.37 W/m2 CLR
05:31 -2.4 °F -3.8 °F 1029.0 in Calm     90% 0.0 in WeatherDisplay:10.37 W/m2 CLR
05:36 -2.1 °F -3.4 °F 1029.0 in Calm     91% 0.0 in WeatherDisplay:10.37 W/m2 CLR
05:41 -2.3 °F -3.6 °F 1029.0 in Calm     91% 0.0 in WeatherDisplay:10.37 W/m2 CLR
05:46 -2.4 °F -3.7 °F 1029.3 in Calm     91% 0.0 in WeatherDisplay:10.37 W/m2 CLR
05:51 -2.4 °F -3.7 °F 1029.0 in Calm     91% 0.0 in WeatherDisplay:10.37 W/m2 CLR
05:56 -2.3 °F -3.6 °F 1029.3 in Calm     91% 0.0 in WeatherDisplay:10.37 W/m2 CLR
06:01 -2.3 °F -3.6 °F 1029.3 in Calm     91% 0.0 in WeatherDisplay:10.37 W/m2 CLR
06:06 -1.9 °F -3.2 °F 1029.3 in Calm     91% 0.0 in WeatherDisplay:10.37 W/m2 CLR
06:11 -2.3 °F -3.6 °F 1029.3 in Calm     91% 0.0 in WeatherDisplay:10.37 W/m2 CLR
06:16 -2.3 °F -3.6 °F 1029.3 in Calm     91% 0.0 in WeatherDisplay:10.37 W/m2 CLR
06:21 -2.3 °F -3.6 °F 1029.3 in Calm     91% 0.0 in WeatherDisplay:10.37 W/m2 CLR
06:26 -2.3 °F -3.6 °F 1029.3 in Calm     91% 0.0 in WeatherDisplay:10.37 W/m2 CLR
06:31 -2.3 °F -3.6 °F 1029.3 in Calm     91% 0.0 in WeatherDisplay:10.37 W/m2 CLR
06:36 -2.1 °F -3.4 °F 1029.3 in Calm     91% 0.0 in WeatherDisplay:10.37 W/m2 CLR
06:41 -1.8 °F -3.1 °F 1029.3 in Calm     91% 0.0 in WeatherDisplay:10.37 W/m2 CLR
06:46 -1.3 °F -2.6 °F 1030.0 in Calm     91% 0.0 in WeatherDisplay:10.37 W/m2 CLR
06:51 -0.3 °F -2.3 °F 1029.3 in Calm     86% 0.0 in WeatherDisplay:10.37 W/m2 CLR
06:56 0.6 °F -1.9 °F 1030.0 in Calm     83% 0.0 in WeatherDisplay:10.37 W/m2 CLR
07:01 1.4 °F -1.5 °F 1030.0 in Calm     81% 0.0 in WeatherDisplay:10.37 W/m2 CLR
07:06 1.9 °F -1.2 °F 1030.0 in Calm     80% 0.0 in WeatherDisplay:10.37 W/m2 CLR
07:11 1.9 °F -1.2 °F 1030.0 in ESE 1.4 mph   80% 0.0 in WeatherDisplay:10.37 W/m2 CLR
07:16 3.3 °F -0.2 °F 1030.0 in ESE 1.9 mph 1.9 mph 78% 0.0 in WeatherDisplay:10.37 W/m2 CLR
07:21 4.4 °F 0.3 °F 1030.0 in ESE 1.9 mph 1.9 mph 75% 0.0 in WeatherDisplay:10.37 W/m2 CLR
07:26 4.9 °F 0.4 °F 1030.0 in Calm     73% 0.0 in WeatherDisplay:10.37 W/m2 CLR
07:31 5.8 °F 0.7 °F 1030.0 in Calm     70% 0.0 in WeatherDisplay:10.37 W/m2 CLR
07:36 5.9 °F 0.8 °F 1030.0 in Calm     70% 0.0 in WeatherDisplay:10.37 W/m2 CLR
07:41 6.1 °F 1.1 °F 1030.0 in Calm     70% 0.0 in WeatherDisplay:10.37 W/m2 CLR
07:46 6.1 °F 1.1 °F 1030.4 in Calm     70% 0.0 in WeatherDisplay:10.37 W/m2 CLR
07:51 7.7 °F 1.6 °F 1030.4 in Calm     65% 0.0 in WeatherDisplay:10.37 W/m2 CLR
07:56 7.2 °F 1.3 °F 1030.0 in Calm     66% 0.0 in WeatherDisplay:10.37 W/m2 CLR
08:01 7.6 °F 1.4 °F 1030.4 in Calm     65% 0.0 in WeatherDisplay:10.37 W/m2 CLR
08:06 9.8 °F 2.6 °F 1030.0 in Calm     61% 0.0 in WeatherDisplay:10.37 W/m2 CLR
08:11 9.6 °F 2.2 °F 1030.0 in Calm     60% 0.0 in WeatherDisplay:10.37 W/m2 CLR
08:16 10.2 °F 2.6 °F 1030.0 in Calm     59% 0.0 in WeatherDisplay:10.37 W/m2 CLR
08:21 10.4 °F 2.5 °F 1030.0 in ENE 3.7 mph 3.7 mph 58% 0.0 in WeatherDisplay:10.37 W/m2 CLR
08:26 10.4 °F 2.9 °F 1030.0 in ENE 3.7 mph 3.7 mph 60% 0.0 in WeatherDisplay:10.37 W/m2 CLR
08:31 10.0 °F 2.6 °F 1030.4 in SSE 3.2 mph 3.2 mph 60% 0.0 in WeatherDisplay:10.37 W/m2 CLR
08:36 11.1 °F 3.2 °F 1030.4 in SE 3.7 mph 3.7 mph 58% 0.0 in WeatherDisplay:10.37 W/m2 CLR
08:41 11.6 °F 3.1 °F 1030.4 in SE 3.7 mph 3.7 mph 56% 0.0 in WeatherDisplay:10.37 W/m2 CLR
08:46 12.1 °F 3.3 °F 1030.4 in ESE 3.7 mph 3.7 mph 55% 0.0 in WeatherDisplay:10.37 W/m2 CLR
08:51 12.3 °F 3.5 °F 1030.0 in SSW 1.9 mph 1.9 mph 55% 0.0 in WeatherDisplay:10.37 W/m2 CLR
08:56 11.4 °F 2.9 °F 1030.4 in East 1.9 mph 1.9 mph 56% 0.0 in WeatherDisplay:10.37 W/m2 CLR
09:01 11.4 °F 3.4 °F 1030.4 in ESE 3.7 mph 3.7 mph 58% 0.0 in WeatherDisplay:10.37 W/m2 CLR
09:06 12.3 °F 3.5 °F 1030.0 in SSW 5.6 mph 5.6 mph 55% 0.0 in WeatherDisplay:10.37 W/m2 CLR
09:11 12.2 °F 3.4 °F 1030.0 in ESE 1.9 mph 2.1 mph 55% 0.0 in WeatherDisplay:10.37 W/m2 CLR
09:16 12.8 °F 4.0 °F 1030.4 in South 3.7 mph 3.7 mph 55% 0.0 in WeatherDisplay:10.37 W/m2 CLR
09:21 12.8 °F 4.0 °F 1030.0 in WSW 3.7 mph 3.7 mph 55% 0.0 in WeatherDisplay:10.37 W/m2 CLR
09:26 12.9 °F 4.1 °F 1030.0 in ESE 3.7 mph 3.7 mph 55% 0.0 in WeatherDisplay:10.37 W/m2 CLR
09:31 13.7 °F 4.3 °F 1030.0 in ESE 3.2 mph 3.2 mph 53% 0.0 in WeatherDisplay:10.37 W/m2 CLR
09:36 13.8 °F 4.4 °F 1030.0 in SSW 3.7 mph 3.7 mph 53% 0.0 in WeatherDisplay:10.37 W/m2 CLR
09:41 13.5 °F 4.1 °F 1030.0 in SE 3.7 mph 3.7 mph 53% 0.0 in WeatherDisplay:10.37 W/m2 CLR
09:46 13.6 °F 3.4 °F 1030.0 in SSW 5.6 mph 5.6 mph 50% 0.0 in WeatherDisplay:10.37 W/m2 CLR
09:51 15.2 °F 4.3 °F 1030.0 in ENE 3.7 mph 3.7 mph 48% 0.0 in WeatherDisplay:10.37 W/m2 CLR
09:56 14.3 °F 3.4 °F 1030.0 in SSW 3.7 mph 3.7 mph 48% 0.0 in WeatherDisplay:10.37 W/m2 CLR
10:01 14.6 °F 3.1 °F 1030.0 in SSE 4.7 mph 4.7 mph 46% 0.0 in WeatherDisplay:10.37 W/m2 CLR
10:06 14.9 °F 1.4 °F 1030.0 in East 5.6 mph 5.6 mph 40% 0.0 in WeatherDisplay:10.37 W/m2 CLR
10:11 14.3 °F 0.5 °F 1030.0 in ESE 7.4 mph 7.4 mph 39% 0.0 in WeatherDisplay:10.37 W/m2 CLR
10:16 14.6 °F 0.1 °F 1030.0 in South 5.6 mph 5.6 mph 37% 0.0 in WeatherDisplay:10.37 W/m2 CLR
10:21 15.2 °F -1.4 °F 1030.0 in SSE 9.3 mph 9.3 mph 32% 0.0 in WeatherDisplay:10.37 W/m2 CLR
10:26 14.9 °F -0.8 °F 1030.0 in ESE 6.4 mph 6.4 mph 34% 0.0 in WeatherDisplay:10.37 W/m2 CLR
10:31 15.4 °F -0.4 °F 1030.0 in ESE 5.6 mph 5.6 mph 34% 0.0 in WeatherDisplay:10.37 W/m2 CLR
10:36 15.1 °F -0.7 °F 1030.0 in ESE 7.4 mph 7.4 mph 34% 0.0 in WeatherDisplay:10.37 W/m2 CLR
10:41 14.9 °F -0.4 °F 1030.0 in SE 7.4 mph 7.4 mph 35% 0.0 in WeatherDisplay:10.37 W/m2 CLR
10:46 15.1 °F 0.5 °F 1030.0 in SE 5.6 mph 5.6 mph 37% 0.0 in WeatherDisplay:10.37 W/m2 CLR
10:51 15.4 °F 0.8 °F 1030.0 in SSE 6.4 mph 6.4 mph 37% 0.0 in WeatherDisplay:10.37 W/m2 CLR
10:56 14.9 °F -0.8 °F 1030.0 in ESE 7.9 mph 7.9 mph 34% 0.0 in WeatherDisplay:10.37 W/m2 CLR
11:01 15.0 °F -0.8 °F 1030.0 in ESE 7.4 mph 7.4 mph 34% 0.0 in WeatherDisplay:10.37 W/m2 CLR
11:06 15.4 °F -1.2 °F 1030.0 in ESE 6.4 mph 6.4 mph 32% 0.0 in WeatherDisplay:10.37 W/m2 CLR
11:11 15.6 °F -1.5 °F 1030.0 in SE 5.6 mph 5.6 mph 31% 0.0 in WeatherDisplay:10.37 W/m2 CLR
11:16 15.5 °F -1.6 °F 1029.7 in ESE 7.4 mph 7.4 mph 31% 0.0 in WeatherDisplay:10.37 W/m2 CLR
11:21 15.2 °F -1.4 °F 1030.0 in SSE 7.4 mph 7.4 mph 32% 0.0 in WeatherDisplay:10.37 W/m2 CLR
11:26 15.2 °F -2.3 °F 1030.0 in South 5.6 mph 5.6 mph 30% 0.0 in WeatherDisplay:10.37 W/m2 CLR
11:31 15.5 °F -1.2 °F 1030.0 in South 7.4 mph 7.4 mph 32% 0.0 in WeatherDisplay:10.37 W/m2 CLR
11:36 16.2 °F -0.9 °F 1030.0 in ESE 5.6 mph 5.6 mph 31% 0.0 in WeatherDisplay:10.37 W/m2 CLR
11:41 16.1 °F -1.5 °F 1030.0 in ESE 6.4 mph 6.4 mph 30% 0.0 in WeatherDisplay:10.37 W/m2 CLR
11:46 16.3 °F -1.3 °F 1030.0 in ESE 5.6 mph 5.6 mph 30% 0.0 in WeatherDisplay:10.37 W/m2 CLR
11:51 16.1 °F -1.5 °F 1029.7 in SE 7.4 mph 7.4 mph 30% 0.0 in WeatherDisplay:10.37 W/m2 CLR
11:56 16.7 °F -1.0 °F 1029.7 in East 5.6 mph 5.6 mph 30% 0.0 in WeatherDisplay:10.37 W/m2 CLR
12:01 15.9 °F -1.2 °F 1030.0 in South 3.7 mph 3.7 mph 31% 0.0 in WeatherDisplay:10.37 W/m2 CLR
12:06 16.1 °F -1.9 °F 1029.7 in SSE 7.9 mph 7.9 mph 29% 0.0 in WeatherDisplay:10.37 W/m2 CLR
12:11 16.5 °F -2.6 °F 1029.7 in ESE 7.4 mph 7.4 mph 27% 0.0 in WeatherDisplay:10.37 W/m2 CLR
12:16 16.4 °F -1.7 °F 1029.7 in ESE 7.9 mph 7.9 mph 29% 0.0 in WeatherDisplay:10.37 W/m2 CLR
12:21 16.4 °F -1.7 °F 1029.7 in East 5.6 mph 5.6 mph 29% 0.0 in WeatherDisplay:10.37 W/m2 CLR
12:26 16.6 °F -1.6 °F 1029.7 in ESE 7.4 mph 7.4 mph 29% 0.0 in WeatherDisplay:10.37 W/m2 CLR
12:31 16.5 °F -1.6 °F 1029.7 in SSE 5.6 mph 5.6 mph 29% 0.0 in WeatherDisplay:10.37 W/m2 CLR
12:36 16.3 °F -1.8 °F 1029.7 in ENE 7.4 mph 7.4 mph 29% 0.0 in WeatherDisplay:10.37 W/m2 CLR
12:41 16.5 °F -2.6 °F 1029.3 in ESE 5.6 mph 5.6 mph 27% 0.0 in WeatherDisplay:10.37 W/m2 CLR
12:46 16.8 °F -1.3 °F 1029.3 in SSE 7.4 mph 7.4 mph 29% 0.0 in WeatherDisplay:10.37 W/m2 CLR
12:51 16.1 °F -1.5 °F 1029.0 in SSE 9.3 mph 9.3 mph 30% 0.0 in WeatherDisplay:10.37 W/m2 CLR
12:56 16.1 °F -1.5 °F 1028.7 in SSE 7.4 mph 7.4 mph 30% 0.0 in WeatherDisplay:10.37 W/m2 CLR
13:01 16.3 °F -1.3 °F 1028.7 in SE 5.6 mph 5.6 mph 30% 0.0 in WeatherDisplay:10.37 W/m2 CLR
13:06 16.5 °F -1.2 °F 1028.7 in SSE 5.6 mph 5.6 mph 30% 0.0 in WeatherDisplay:10.37 W/m2 CLR
13:11 16.3 °F -1.3 °F 1028.7 in ESE 5.6 mph 5.6 mph 30% 0.0 in WeatherDisplay:10.37 W/m2 CLR
13:16 16.8 °F -0.9 °F 1028.7 in ESE 5.6 mph 5.6 mph 30% 0.0 in WeatherDisplay:10.37 W/m2 CLR
13:17 16.6 °F -1.1 °F 1028.7 in ESE 5.6 mph 5.6 mph 30% 0.0 in WeatherDisplay:10.37 W/m2 CLR
13:22 16.6 °F -1.1 °F 1028.7 in ESE 6.4 mph 6.4 mph 30% 0.0 in WeatherDisplay:10.37 W/m2 CLR
13:27 16.2 °F -0.6 °F 1028.7 in SE 6.4 mph 6.4 mph 32% 0.0 in WeatherDisplay:10.37 W/m2 CLR
13:32 16.4 °F -0.3 °F 1028.7 in SSE 7.4 mph 7.4 mph 32% 0.0 in WeatherDisplay:10.37 W/m2 CLR
13:37 16.8 °F 0.0 °F 1028.7 in NNE 3.7 mph 3.7 mph 32% 0.0 in WeatherDisplay:10.37 W/m2 CLR
13:42 16.5 °F -0.3 °F 1028.7 in South 7.4 mph 7.4 mph 32% 0.0 in WeatherDisplay:10.37 W/m2 CLR
13:47 16.6 °F -0.2 °F 1028.3 in South 6.4 mph 6.4 mph 32% 0.0 in WeatherDisplay:10.37 W/m2 CLR
13:48 16.6 °F 0.7 °F 1028.3 in ESE 7.4 mph 7.4 mph 34% 0.0 in WeatherDisplay:10.37 W/m2 CLR
13:53 16.5 °F -0.3 °F 1028.3 in ESE 5.6 mph 6.1 mph 32% 0.0 in WeatherDisplay:10.37 W/m2 CLR
13:58 16.8 °F 0.0 °F 1028.0 in SE 5.6 mph 5.6 mph 32% 0.0 in WeatherDisplay:10.37 W/m2 CLR
14:03 16.5 °F 0.6 °F 1028.3 in NNE 7.4 mph 7.4 mph 34% 0.0 in WeatherDisplay:10.37 W/m2 CLR
14:05 16.7 °F -0.1 °F 1028.3 in ESE 9.3 mph 9.3 mph 32% 0.0 in WeatherDisplay:10.37 W/m2 CLR
14:10 16.5 °F 0.9 °F 1028.3 in South 13.0 mph 13.0 mph 35% 0.0 in WeatherDisplay:10.37 W/m2 CLR
14:15 16.3 °F 0.8 °F 1028.0 in ESE 9.7 mph 9.7 mph 35% 0.0 in WeatherDisplay:10.37 W/m2 CLR
14:20 16.1 °F 0.2 °F 1028.3 in SE 7.9 mph 7.9 mph 34% 0.0 in WeatherDisplay:10.37 W/m2 CLR
14:25 16.1 °F 0.6 °F 1028.0 in ESE 11.1 mph 11.1 mph 35% 0.0 in WeatherDisplay:10.37 W/m2 CLR
14:30 16.1 °F 0.6 °F 1028.0 in SE 6.4 mph 6.4 mph 35% 0.0 in WeatherDisplay:10.37 W/m2 CLR
14:35 16.4 °F 0.9 °F 1028.0 in SE 6.4 mph 6.4 mph 35% 0.0 in WeatherDisplay:10.37 W/m2 CLR
14:40 16.6 °F 0.7 °F 1027.7 in West 5.6 mph 5.6 mph 34% 0.0 in WeatherDisplay:10.37 W/m2 CLR
14:45 16.7 °F 1.2 °F 1027.7 in SSE 6.4 mph 6.4 mph 35% 0.0 in WeatherDisplay:10.37 W/m2 CLR
15:02 16.4 °F 0.9 °F 1027.3 in East 7.4 mph 7.4 mph 35% 0.0 in WeatherDisplay:10.37 W/m2 CLR
15:07 16.4 °F 0.9 °F 1027.3 in East 6.4 mph 6.4 mph 35% 0.0 in WeatherDisplay:10.37 W/m2 CLR
15:12 16.5 °F 1.7 °F 1027.3 in East 5.6 mph 6.1 mph 37% 0.0 in WeatherDisplay:10.37 W/m2 CLR
15:17 16.4 °F 1.7 °F 1027.0 in ESE 3.7 mph 4.7 mph 37% 0.0 in WeatherDisplay:10.37 W/m2 CLR
15:22 16.1 °F 1.4 °F 1027.0 in SSW 9.3 mph 9.3 mph 37% 0.0 in WeatherDisplay:10.37 W/m2 CLR
15:27 15.9 °F 1.9 °F 1027.0 in ESE 9.7 mph 9.7 mph 39% 0.0 in WeatherDisplay:10.37 W/m2 CLR
15:32 16.3 °F 1.6 °F 1027.0 in SSW 3.7 mph 4.7 mph 37% 0.0 in WeatherDisplay:10.37 W/m2 CLR
15:37 16.3 °F 1.6 °F 1027.0 in ESE 6.4 mph 6.8 mph 37% 0.0 in WeatherDisplay:10.37 W/m2 CLR
15:42 16.2 °F 2.2 °F 1026.6 in ENE 7.4 mph 7.4 mph 39% 0.0 in WeatherDisplay:10.37 W/m2 CLR
15:47 16.2 °F 2.2 °F 1026.6 in NE 7.9 mph 7.9 mph 39% 0.0 in WeatherDisplay:10.37 W/m2 CLR
15:52 15.9 °F 1.2 °F 1027.0 in ESE 7.4 mph 7.4 mph 37% 0.0 in WeatherDisplay:10.37 W/m2 CLR
15:57 15.8 °F 1.1 °F 1026.6 in South 11.1 mph 11.1 mph 37% 0.0 in WeatherDisplay:10.37 W/m2 CLR
16:02 15.6 °F 0.9 °F 1027.0 in ESE 9.3 mph 9.3 mph 37% 0.0 in WeatherDisplay:10.37 W/m2 CLR
16:07 15.7 °F 1.8 °F 1027.0 in East 5.6 mph 5.6 mph 39% 0.0 in WeatherDisplay:10.37 W/m2 CLR
16:12 15.8 °F 1.1 °F 1026.6 in ESE 5.6 mph 5.6 mph 37% 0.0 in WeatherDisplay:10.37 W/m2 CLR
16:17 15.7 °F 1.8 °F 1026.6 in ESE 5.6 mph 5.6 mph 39% 0.0 in WeatherDisplay:10.37 W/m2 CLR
16:22 15.7 °F 1.1 °F 1026.6 in ENE 5.6 mph 5.6 mph 37% 0.0 in WeatherDisplay:10.37 W/m2 CLR
16:27 15.7 °F 1.1 °F 1026.6 in East 3.7 mph 3.7 mph 37% 0.0 in WeatherDisplay:10.37 W/m2 CLR
16:32 15.7 °F 1.8 °F 1026.6 in East 6.4 mph 6.4 mph 39% 0.0 in WeatherDisplay:10.37 W/m2 CLR
16:37 15.7 °F 1.8 °F 1026.6 in East 4.7 mph 4.7 mph 39% 0.0 in WeatherDisplay:10.37 W/m2 CLR
16:42 15.6 °F 1.7 °F 1026.6 in ESE 7.4 mph 7.4 mph 39% 0.0 in WeatherDisplay:10.37 W/m2 CLR
16:47 15.6 °F 1.7 °F 1026.6 in SSE 7.4 mph 7.4 mph 39% 0.0 in WeatherDisplay:10.37 W/m2 CLR
16:52 15.4 °F 1.5 °F 1026.6 in South 7.4 mph 7.4 mph 39% 0.0 in WeatherDisplay:10.37 W/m2 CLR
16:57 15.5 °F 1.6 °F 1026.6 in ESE 5.6 mph 6.1 mph 39% 0.0 in WeatherDisplay:10.37 W/m2 CLR
17:02 15.5 °F 1.6 °F 1026.6 in East 5.6 mph 6.1 mph 39% 0.0 in WeatherDisplay:10.37 W/m2 CLR
17:07 15.4 °F 1.5 °F 1026.6 in ESE 7.4 mph 7.4 mph 39% 0.0 in WeatherDisplay:10.37 W/m2 CLR
17:12 15.2 °F 1.3 °F 1026.6 in East 4.7 mph 4.7 mph 39% 0.0 in WeatherDisplay:10.37 W/m2 CLR
17:17 15.6 °F 2.1 °F 1026.6 in SSE 6.4 mph 6.4 mph 40% 0.0 in WeatherDisplay:10.37 W/m2 CLR
17:22 15.2 °F 1.3 °F 1026.6 in WNW 5.6 mph 5.6 mph 39% 0.0 in WeatherDisplay:10.37 W/m2 CLR
17:27 15.2 °F 1.7 °F 1026.3 in South 3.7 mph 3.7 mph 40% 0.0 in WeatherDisplay:10.37 W/m2 CLR
17:32 15.2 °F 1.7 °F 1026.3 in SSW 3.7 mph 3.7 mph 40% 0.0 in WeatherDisplay:10.37 W/m2 CLR
17:37 15.2 °F 0.6 °F 1026.3 in SSE 5.6 mph 5.6 mph 37% 0.0 in WeatherDisplay:10.37 W/m2 CLR
17:42 15.2 °F 1.3 °F 1026.3 in South 5.6 mph 5.6 mph 39% 0.0 in WeatherDisplay:10.37 W/m2 CLR
17:47 15.0 °F 1.2 °F 1026.3 in SSW 3.7 mph 3.7 mph 39% 0.0 in WeatherDisplay:10.37 W/m2 CLR
17:52 15.2 °F 1.3 °F 1026.3 in South 3.7 mph 3.7 mph 39% 0.0 in WeatherDisplay:10.37 W/m2 CLR
17:57 14.9 °F 1.1 °F 1026.3 in SSE 5.6 mph 5.6 mph 39% 0.0 in WeatherDisplay:10.37 W/m2 CLR
18:02 14.7 °F 1.2 °F 1026.0 in ESE 4.7 mph 4.7 mph 40% 0.0 in WeatherDisplay:10.37 W/m2 CLR
18:07 14.9 °F 1.1 °F 1026.3 in South 3.7 mph 3.7 mph 39% 0.0 in WeatherDisplay:10.37 W/m2 CLR
18:12 14.7 °F 1.2 °F 1026.3 in South 5.6 mph 5.6 mph 40% 0.0 in WeatherDisplay:10.37 W/m2 CLR
18:17 14.6 °F 1.1 °F 1026.0 in SSE 3.7 mph 3.7 mph 40% 0.0 in WeatherDisplay:10.37 W/m2 CLR
18:22 14.6 °F 1.1 °F 1026.0 in South 3.7 mph 3.7 mph 40% 0.0 in WeatherDisplay:10.37 W/m2 CLR
18:27 14.4 °F 0.9 °F 1026.0 in SSW 3.7 mph 3.7 mph 40% 0.0 in WeatherDisplay:10.37 W/m2 CLR
18:32 14.6 °F 1.1 °F 1026.0 in South 1.4 mph 1.4 mph 40% 0.0 in WeatherDisplay:10.37 W/m2 CLR
18:37 14.2 °F 0.8 °F 1026.0 in SE 4.7 mph 4.7 mph 40% 0.0 in WeatherDisplay:10.37 W/m2 CLR
Juneau County Weather
Compliments of Weather Underground - 3.75 mb